createdAt,value
2019-05-23T00:02:12.751Z,3.17
2019-05-23T00:06:40.403Z,2.40
2019-05-23T00:11:24.795Z,2.83
2019-05-23T00:15:42.288Z,5.37
2019-05-23T00:19:52.422Z,2.90
2019-05-23T00:24:00.268Z,3.20
2019-05-23T00:28:08.993Z,2.30
2019-05-23T00:32:32.424Z,2.43
2019-05-23T00:36:42.072Z,9.33
2019-05-23T00:40:50.858Z,4.83
2019-05-23T00:44:59.219Z,2.00
2019-05-23T00:49:09.649Z,3.03
2019-05-23T00:53:18.612Z,2.47
2019-05-23T00:57:27.711Z,4.07
2019-05-23T01:01:37.856Z,2.50
2019-05-23T01:05:46.730Z,4.27
2019-05-23T01:09:54.740Z,2.33
2019-05-23T01:14:03.683Z,2.27
2019-05-23T01:18:13.814Z,2.27
2019-05-23T01:22:26.388Z,2.97
2019-05-23T01:26:34.470Z,2.77
2019-05-23T01:30:45.397Z,2.57
2019-05-23T01:34:55.341Z,3.70
2019-05-23T01:39:04.466Z,3.70
2019-05-23T01:43:14.618Z,3.60
2019-05-23T01:47:23.500Z,6.50
2019-05-23T01:51:32.598Z,5.77
2019-05-23T01:55:40.891Z,11.37
2019-05-23T02:00:06.114Z,5.43
2019-05-23T02:03:59.949Z,4.43
2019-05-23T02:08:11.737Z,5.77
2019-05-23T02:12:20.588Z,4.93
2019-05-23T02:16:29.357Z,7.20
2019-05-23T02:20:37.231Z,7.30
2019-05-23T02:24:46.658Z,5.33
2019-05-23T02:28:55.384Z,4.83
2019-05-23T02:33:03.711Z,3.37
2019-05-23T02:37:31.119Z,2.83
2019-05-23T02:41:55.241Z,2.23
2019-05-23T02:46:08.350Z,2.20
2019-05-23T02:50:23.830Z,1.70
2019-05-23T02:54:37.289Z,4.47
2019-05-23T02:59:42.301Z,2.73
2019-05-23T03:03:51.642Z,2.00
2019-05-23T03:08:04.691Z,4.77
2019-05-23T03:12:15.576Z,5.40
2019-05-23T03:16:24.412Z,4.27
2019-05-23T03:20:35.192Z,6.90
2019-05-23T03:24:43.469Z,6.13
2019-05-23T03:28:52.412Z,1.77
2019-05-23T03:33:02.531Z,3.53
2019-05-23T03:37:11.026Z,1.90
2019-05-23T03:41:18.682Z,1.67
2019-05-23T03:45:30.689Z,2.57
2019-05-23T03:49:39.920Z,1.70
2019-05-23T03:53:49.456Z,1.47
2019-05-23T03:57:57.885Z,2.03
2019-05-23T04:02:09.481Z,15.53
2019-05-23T04:06:17.430Z,15.80
2019-05-23T04:10:25.863Z,17.37
2019-05-23T04:14:33.972Z,22.17
2019-05-23T04:18:42.322Z,20.07
2019-05-23T04:22:50.790Z,24.60
2019-05-23T04:26:58.273Z,31.00
2019-05-23T04:31:07.737Z,33.67
2019-05-23T04:35:15.912Z,45.87
2019-05-23T04:39:24.711Z,42.83
2019-05-23T04:43:32.204Z,38.53
2019-05-23T04:47:40.756Z,49.47
2019-05-23T04:51:49.097Z,50.20
2019-05-23T04:55:56.733Z,46.10
2019-05-23T05:00:06.546Z,43.67
2019-05-23T05:04:15.472Z,41.43
2019-05-23T05:08:22.980Z,43.30
2019-05-23T05:12:31.489Z,40.33
2019-05-23T05:16:39.061Z,43.60
2019-05-23T05:20:47.609Z,37.03
2019-05-23T05:24:55.700Z,41.13
2019-05-23T05:29:05.292Z,36.23
2019-05-23T05:33:13.737Z,54.37
2019-05-23T05:37:21.732Z,55.93
2019-05-23T05:41:29.250Z,56.47
2019-05-23T05:45:37.608Z,51.80
2019-05-23T05:49:46.090Z,38.77
2019-05-23T05:53:53.972Z,40.73
2019-05-23T05:58:02.918Z,34.57
2019-05-23T06:02:12.893Z,24.37
2019-05-23T06:06:32.303Z,2.97
2019-05-23T06:10:40.290Z,3.37
2019-05-23T06:14:47.868Z,2.50
2019-05-23T06:18:56.143Z,1.30
2019-05-23T06:23:05.531Z,1.80
2019-05-23T06:27:14.579Z,2.43
2019-05-23T06:31:23.465Z,2.47
2019-05-23T06:35:30.946Z,1.60
2019-05-23T06:39:39.969Z,1.83
2019-05-23T06:43:48.322Z,2.50
2019-05-23T06:47:55.917Z,1.10
2019-05-23T06:52:04.768Z,3.20
2019-05-23T06:56:13.814Z,0.80
2019-05-23T07:00:25.096Z,1.40
2019-05-23T07:04:33.253Z,3.50
2019-05-23T07:08:40.713Z,1.30
2019-05-23T07:12:48.745Z,1.50
2019-05-23T07:16:56.325Z,1.17
2019-05-23T07:21:05.817Z,0.90
2019-05-23T07:25:14.460Z,1.85
2019-05-23T07:29:22.236Z,2.23
2019-05-23T07:33:30.665Z,2.75
2019-05-23T07:37:38.335Z,1.12
2019-05-23T07:41:46.387Z,2.22
2019-05-23T07:45:59.351Z,1.73
2019-05-23T07:50:07.178Z,2.10
2019-05-23T07:54:29.053Z,1.87
2019-05-23T07:58:38.299Z,1.50
2019-05-23T08:02:49.306Z,5.57
2019-05-23T08:06:57.970Z,4.97
2019-05-23T08:11:05.960Z,4.87
2019-05-23T08:15:17.252Z,1.12
2019-05-23T08:19:25.018Z,3.20
2019-05-23T08:23:34.686Z,1.00
2019-05-23T08:27:44.624Z,3.40
2019-05-23T08:31:52.679Z,1.62
2019-05-23T08:36:02.383Z,1.07
2019-05-23T08:40:11.232Z,1.15
2019-05-23T08:44:20.531Z,10.82
2019-05-23T08:48:29.541Z,0.80
2019-05-23T08:52:37.228Z,1.07
2019-05-23T08:56:45.924Z,3.25
2019-05-23T09:00:55.060Z,3.33
2019-05-23T09:05:06.452Z,1.15
2019-05-23T09:09:29.061Z,10.03
2019-05-23T09:13:24.878Z,2.20
2019-05-23T09:17:49.757Z,1.35
2019-05-23T09:21:43.751Z,1.10
2019-05-23T09:25:51.564Z,1.37
2019-05-23T09:30:00.637Z,0.80
2019-05-23T09:34:09.396Z,2.00
2019-05-23T09:38:17.037Z,1.10
2019-05-23T09:42:25.291Z,0.80
2019-05-23T09:46:32.854Z,1.45
2019-05-23T09:50:41.410Z,3.08
2019-05-23T09:54:49.496Z,1.30
2019-05-23T09:58:57.156Z,1.10
2019-05-23T10:03:07.289Z,1.00
2019-05-23T10:07:16.515Z,1.10
2019-05-23T10:11:24.079Z,2.15
2019-05-23T10:15:51.678Z,1.57
2019-05-23T10:19:59.137Z,1.27
2019-05-23T10:24:06.792Z,1.72
2019-05-23T10:28:15.637Z,1.05
2019-05-23T10:32:23.079Z,1.30
2019-05-23T10:36:31.147Z,2.52
2019-05-23T10:40:40.243Z,1.40
2019-05-23T10:44:47.790Z,1.10
2019-05-23T10:48:56.523Z,2.08
2019-05-23T10:53:05.152Z,2.47
2019-05-23T10:57:12.790Z,0.75
2019-05-23T11:01:21.692Z,1.20
2019-05-23T11:05:29.620Z,0.85
2019-05-23T11:09:38.668Z,1.92
2019-05-23T11:13:46.845Z,1.52
2019-05-23T11:17:54.764Z,1.62
2019-05-23T11:22:03.379Z,0.90
2019-05-23T11:26:11.705Z,1.40
2019-05-23T11:30:27.250Z,1.67
2019-05-23T11:34:35.697Z,8.30
2019-05-23T11:38:43.348Z,1.20
2019-05-23T11:42:52.801Z,1.00
2019-05-23T11:47:01.900Z,0.93
2019-05-23T11:51:09.773Z,1.10
2019-05-23T11:55:18.211Z,1.10
2019-05-23T11:59:26.753Z,2.05
2019-05-23T12:03:34.506Z,0.80
2019-05-23T12:07:45.433Z,1.30
2019-05-23T12:11:53.155Z,1.20
2019-05-23T12:16:02.267Z,2.50
2019-05-23T12:20:10.213Z,0.90
2019-05-23T12:24:18.971Z,1.00
2019-05-23T12:28:28.529Z,1.15
2019-05-23T12:32:36.118Z,3.58
2019-05-23T12:36:44.141Z,2.65
2019-05-23T12:40:52.215Z,2.37
2019-05-23T12:44:59.822Z,1.62
2019-05-23T12:49:38.926Z,1.35
2019-05-23T12:53:47.427Z,1.42
2019-05-23T12:57:55.349Z,1.20
2019-05-23T13:02:05.512Z,2.95
2019-05-23T13:06:15.031Z,1.47
2019-05-23T13:10:25.022Z,1.47
2019-05-23T13:14:33.847Z,1.67
2019-05-23T13:18:41.588Z,1.50
2019-05-23T13:22:49.786Z,3.25
2019-05-23T13:26:57.805Z,3.40
2019-05-23T13:31:05.771Z,2.45
2019-05-23T13:35:14.765Z,2.90
2019-05-23T13:39:22.313Z,1.57
2019-05-23T13:43:30.765Z,1.90
2019-05-23T13:47:38.838Z,2.25
2019-05-23T13:51:47.123Z,1.95
2019-05-23T13:55:55.899Z,2.27
2019-05-23T14:00:04.233Z,5.33
2019-05-23T14:04:12.406Z,4.55
2019-05-23T14:08:21.294Z,3.05
2019-05-23T14:12:28.972Z,2.50
2019-05-23T14:16:56.214Z,2.90
2019-05-23T14:21:05.024Z,2.20
2019-05-23T14:25:12.697Z,3.90
2019-05-23T14:29:21.196Z,2.77
2019-05-23T14:34:00.016Z,2.17
2019-05-23T14:38:09.855Z,3.17
2019-05-23T14:42:35.861Z,3.65
2019-05-23T14:46:54.537Z,1.98
2019-05-23T14:51:19.597Z,2.00
2019-05-23T14:55:27.867Z,1.55
2019-05-23T14:59:36.554Z,4.08
2019-05-23T15:03:44.769Z,2.75
2019-05-23T15:07:52.328Z,3.30
2019-05-23T15:12:01.852Z,1.60
2019-05-23T15:16:10.029Z,1.32
2019-05-23T15:20:17.862Z,2.65
2019-05-23T15:24:26.219Z,5.15
2019-05-23T15:28:33.774Z,3.58
2019-05-23T15:32:42.313Z,3.98
2019-05-23T15:36:50.760Z,1.40
2019-05-23T15:40:58.591Z,1.75
2019-05-23T15:45:07.685Z,3.02
2019-05-23T15:49:15.931Z,2.35
2019-05-23T15:53:42.818Z,2.10
2019-05-23T15:57:59.746Z,6.12
2019-05-23T16:02:32.030Z,3.65
2019-05-23T16:06:41.611Z,2.98
2019-05-23T16:10:50.141Z,2.55
2019-05-23T16:14:57.839Z,3.37
2019-05-23T16:19:07.018Z,9.80
2019-05-23T16:23:15.623Z,5.03
2019-05-23T16:27:23.814Z,4.75
2019-05-23T16:31:32.294Z,5.83
2019-05-23T16:35:39.757Z,6.12
2019-05-23T16:39:50.012Z,12.40
2019-05-23T16:43:58.464Z,18.87
2019-05-23T16:48:07.388Z,5.35
2019-05-23T16:52:15.652Z,5.42
2019-05-23T16:56:29.549Z,7.70
2019-05-23T17:01:06.123Z,5.65
2019-05-23T17:05:34.448Z,3.87
2019-05-23T17:10:08.236Z,4.78
2019-05-23T17:14:16.655Z,4.75
2019-05-23T17:18:43.586Z,3.98
2019-05-23T17:23:07.248Z,5.53
2019-05-23T17:27:49.859Z,5.15
2019-05-23T17:31:59.783Z,4.90
2019-05-23T17:36:08.193Z,13.15
2019-05-23T17:40:24.864Z,3.42
2019-05-23T17:44:27.705Z,4.12
2019-05-23T17:48:35.571Z,3.40
2019-05-23T17:52:44.428Z,8.23
2019-05-23T17:56:51.923Z,9.33
2019-05-23T18:01:00.699Z,4.23
2019-05-23T18:05:09.049Z,6.33
2019-05-23T18:09:17.242Z,8.70
2019-05-23T18:13:25.746Z,7.80
2019-05-23T18:17:33.797Z,9.97
2019-05-23T18:21:42.227Z,10.30
2019-05-23T18:25:50.232Z,11.30
2019-05-23T18:29:59.515Z,5.73
2019-05-23T18:34:09.505Z,5.73
2019-05-23T18:38:18.357Z,6.85
2019-05-23T18:42:26.508Z,5.53
2019-05-23T18:46:39.208Z,5.30
2019-05-23T18:50:48.058Z,4.53
2019-05-23T18:54:56.537Z,4.47
2019-05-23T18:59:05.869Z,6.97
2019-05-23T19:03:14.739Z,5.10
2019-05-23T19:07:22.982Z,4.43
2019-05-23T19:11:31.437Z,6.40
2019-05-23T19:15:40.363Z,6.23
2019-05-23T19:19:48.799Z,7.30
2019-05-23T19:23:57.586Z,11.10
2019-05-23T19:28:05.871Z,9.27
2019-05-23T19:32:14.521Z,7.93
2019-05-23T19:36:23.906Z,9.47
2019-05-23T19:40:32.914Z,12.07
2019-05-23T19:44:40.845Z,12.70
2019-05-23T19:48:48.635Z,8.33
2019-05-23T19:52:57.108Z,11.90
2019-05-23T19:57:05.338Z,10.57
2019-05-23T20:01:14.464Z,12.70
2019-05-23T20:05:41.716Z,14.57
2019-05-23T20:09:50.183Z,15.47
2019-05-23T20:13:57.779Z,15.83
2019-05-23T20:18:06.797Z,12.80
2019-05-23T20:22:15.751Z,13.60
2019-05-23T20:26:23.297Z,10.57
2019-05-23T20:30:59.830Z,8.27
2019-05-23T20:35:08.544Z,11.57
2019-05-23T20:39:17.314Z,8.03
2019-05-23T20:43:26.116Z,7.70
2019-05-23T20:47:34.757Z,5.97
2019-05-23T20:51:42.246Z,10.60
2019-05-23T20:55:50.244Z,9.80
2019-05-23T20:59:57.718Z,8.97
2019-05-23T21:04:06.468Z,7.47
2019-05-23T21:08:14.802Z,9.77
2019-05-23T21:12:30.078Z,7.40
2019-05-23T21:16:32.602Z,6.63
2019-05-23T21:20:40.277Z,6.13
2019-05-23T21:24:48.074Z,5.50
2019-05-23T21:28:56.445Z,7.07
2019-05-23T21:33:03.951Z,7.90
2019-05-23T21:37:12.841Z,11.00
2019-05-23T21:41:21.202Z,18.77
2019-05-23T21:45:28.640Z,12.73
2019-05-23T21:49:36.626Z,5.57
2019-05-23T21:53:44.085Z,2.50
2019-05-23T21:57:51.588Z,5.40
2019-05-23T22:02:11.911Z,2.47
2019-05-23T22:06:21.120Z,4.23
2019-05-23T22:10:45.371Z,2.40
2019-05-23T22:14:55.298Z,2.37
2019-05-23T22:19:04.648Z,4.27
2019-05-23T22:23:13.108Z,2.53
2019-05-23T22:27:21.542Z,2.67
2019-05-23T22:31:29.855Z,3.33
2019-05-23T22:35:38.191Z,5.57
2019-05-23T22:39:45.966Z,3.30
2019-05-23T22:43:54.014Z,4.07
2019-05-23T22:48:02.644Z,3.97
2019-05-23T22:52:10.295Z,3.77
2019-05-23T22:56:18.883Z,3.30
2019-05-23T23:00:32.828Z,3.63
2019-05-23T23:04:41.301Z,3.83
2019-05-23T23:08:49.877Z,3.93
2019-05-23T23:12:57.507Z,3.93
2019-05-23T23:17:06.094Z,5.20
2019-05-23T23:21:14.850Z,4.50
2019-05-23T23:25:22.353Z,4.77
2019-05-23T23:29:30.972Z,4.10
2019-05-23T23:33:40.242Z,3.10
2019-05-23T23:37:48.729Z,2.50
2019-05-23T23:41:56.736Z,3.60
2019-05-23T23:46:22.337Z,2.50
2019-05-23T23:50:47.921Z,3.10
2019-05-23T23:55:13.840Z,3.27
2019-05-23T23:59:20.379Z,3.40
